createdAt,value
2018-12-10T00:00:06.659Z,5.60
2018-12-10T00:02:34.195Z,5.60
2018-12-10T00:05:02.126Z,5.60
2018-12-10T00:07:29.868Z,5.60
2018-12-10T00:09:57.315Z,5.70
2018-12-10T00:12:24.780Z,5.80
2018-12-10T00:14:52.870Z,6.40
2018-12-10T00:17:20.632Z,7.10
2018-12-10T00:19:48.388Z,7.00
2018-12-10T00:22:16.014Z,6.90
2018-12-10T00:24:43.464Z,7.00
2018-12-10T00:27:11.690Z,6.90
2018-12-10T00:29:39.432Z,6.70
2018-12-10T00:32:07.064Z,6.20
2018-12-10T00:34:34.476Z,5.80
2018-12-10T00:37:02.111Z,5.80
2018-12-10T00:39:29.552Z,5.80
2018-12-10T00:41:57.021Z,5.70
2018-12-10T00:44:24.482Z,5.70
2018-12-10T00:46:51.960Z,5.70
2018-12-10T00:49:19.706Z,5.70
2018-12-10T00:51:47.471Z,5.70
2018-12-10T00:54:14.940Z,5.70
2018-12-10T00:56:42.388Z,5.70
2018-12-10T00:59:09.846Z,5.70
2018-12-10T01:01:37.288Z,5.70
2018-12-10T01:04:05.227Z,5.70
2018-12-10T01:06:32.680Z,5.70
2018-12-10T01:09:00.115Z,5.70
2018-12-10T01:11:27.643Z,5.70
2018-12-10T01:13:55.082Z,5.70
2018-12-10T01:16:22.563Z,5.70
2018-12-10T01:18:50.203Z,5.70
2018-12-10T01:21:17.635Z,5.80
2018-12-10T01:23:45.060Z,5.80
2018-12-10T01:26:12.520Z,5.80
2018-12-10T01:28:40.103Z,5.70
2018-12-10T01:31:07.635Z,5.70
2018-12-10T01:33:35.105Z,5.70
2018-12-10T01:36:02.605Z,5.80
2018-12-10T01:38:30.040Z,5.70
2018-12-10T01:40:57.516Z,5.80
2018-12-10T01:43:24.972Z,5.80
2018-12-10T01:45:52.420Z,5.50
2018-12-10T01:48:19.859Z,5.40
2018-12-10T01:50:47.304Z,5.30
2018-12-10T01:53:14.764Z,5.40
2018-12-10T01:55:42.263Z,5.40
2018-12-10T01:58:09.727Z,5.40
2018-12-10T02:00:37.169Z,5.40
2018-12-10T02:03:04.934Z,5.40
2018-12-10T02:05:32.359Z,5.40
2018-12-10T02:07:59.859Z,5.40
2018-12-10T02:10:27.311Z,5.40
2018-12-10T02:12:54.970Z,5.50
2018-12-10T02:15:22.416Z,5.40
2018-12-10T02:17:49.980Z,5.40
2018-12-10T02:20:17.429Z,5.40
2018-12-10T02:22:44.884Z,5.40
2018-12-10T02:25:12.341Z,5.40
2018-12-10T02:27:40.732Z,5.40
2018-12-10T02:30:08.275Z,5.50
2018-12-10T02:32:35.735Z,5.40
2018-12-10T02:35:03.266Z,5.30
2018-12-10T02:37:30.707Z,5.20
2018-12-10T02:39:58.161Z,5.20
2018-12-10T02:42:25.777Z,5.30
2018-12-10T02:44:53.234Z,5.30
2018-12-10T02:47:21.135Z,5.30
2018-12-10T02:49:49.064Z,5.30
2018-12-10T02:52:16.551Z,5.30
2018-12-10T02:54:44.087Z,5.30
2018-12-10T02:57:11.603Z,5.20
2018-12-10T02:59:39.040Z,5.30
2018-12-10T03:02:06.646Z,5.20
2018-12-10T03:04:34.107Z,5.00
2018-12-10T03:07:01.877Z,4.70
2018-12-10T03:09:29.336Z,4.40
2018-12-10T03:11:56.811Z,4.30
2018-12-10T03:14:24.360Z,4.20
2018-12-10T03:16:52.016Z,4.20
2018-12-10T03:19:20.092Z,4.20
2018-12-10T03:21:47.547Z,4.20
2018-12-10T03:24:15.164Z,4.20
2018-12-10T03:26:42.618Z,4.20
2018-12-10T03:29:10.209Z,4.20
2018-12-10T03:31:37.669Z,4.30
2018-12-10T03:34:05.114Z,4.20
2018-12-10T03:36:32.583Z,4.20
2018-12-10T03:39:00.344Z,4.30
2018-12-10T03:41:28.108Z,4.30
2018-12-10T03:43:55.551Z,4.30
2018-12-10T03:46:22.984Z,4.30
2018-12-10T03:48:50.471Z,4.40
2018-12-10T03:51:17.941Z,4.40
2018-12-10T03:53:45.379Z,4.50
2018-12-10T03:56:12.838Z,4.50
2018-12-10T03:58:40.285Z,4.60
2018-12-10T04:01:08.289Z,4.60
2018-12-10T04:03:35.827Z,4.60
2018-12-10T04:06:03.280Z,4.60
2018-12-10T04:08:30.759Z,4.70
2018-12-10T04:10:58.508Z,4.70
2018-12-10T04:13:26.271Z,4.70
2018-12-10T04:15:53.723Z,4.70
2018-12-10T04:18:21.195Z,4.70
2018-12-10T04:20:48.654Z,4.70
2018-12-10T04:23:16.291Z,4.70
2018-12-10T04:25:43.733Z,4.70
2018-12-10T04:28:11.335Z,4.80
2018-12-10T04:30:39.402Z,4.70
2018-12-10T04:33:06.864Z,4.70
2018-12-10T04:35:34.605Z,4.70
2018-12-10T04:38:02.363Z,4.70
2018-12-10T04:40:29.816Z,4.70
2018-12-10T04:42:57.255Z,4.60
2018-12-10T04:45:24.697Z,4.70
2018-12-10T04:50:26.020Z,4.70
2018-12-10T04:52:53.482Z,4.80
2018-12-10T04:55:21.047Z,4.70
2018-12-10T04:57:48.547Z,4.80
2018-12-10T05:00:15.992Z,4.80
2018-12-10T05:02:43.695Z,4.80
2018-12-10T05:05:11.189Z,4.80
2018-12-10T05:07:38.631Z,4.80
2018-12-10T05:10:06.090Z,4.90
2018-12-10T05:12:33.755Z,4.90
2018-12-10T05:15:01.310Z,4.90
2018-12-10T05:17:28.989Z,4.90
2018-12-10T05:19:56.431Z,5.00
2018-12-10T05:22:23.877Z,5.00
2018-12-10T05:24:51.411Z,5.00
2018-12-10T05:27:19.871Z,4.90
2018-12-10T05:29:47.568Z,4.90
2018-12-10T05:32:15.327Z,4.60
2018-12-10T05:34:43.092Z,4.60
2018-12-10T05:37:10.549Z,4.60
2018-12-10T05:39:38.645Z,4.50
2018-12-10T05:42:06.274Z,4.50
2018-12-10T05:44:33.840Z,4.50
2018-12-10T05:47:01.603Z,4.50
2018-12-10T05:49:29.119Z,4.60
2018-12-10T05:51:56.559Z,4.60
2018-12-10T05:54:24.013Z,4.70
2018-12-10T05:56:51.636Z,4.70
2018-12-10T05:59:19.067Z,4.70
2018-12-10T06:01:46.651Z,4.80
2018-12-10T06:04:14.424Z,4.80
2018-12-10T06:06:42.180Z,4.70
2018-12-10T06:09:09.644Z,4.70
2018-12-10T06:11:37.401Z,4.70
2018-12-10T06:14:05.120Z,4.70
2018-12-10T06:16:32.618Z,4.60
2018-12-10T06:19:00.048Z,4.70
2018-12-10T06:21:27.493Z,4.70
2018-12-10T06:23:54.984Z,4.80
2018-12-10T06:26:22.451Z,4.70
2018-12-10T06:28:49.904Z,4.70
2018-12-10T06:31:17.556Z,4.70
2018-12-10T06:33:45.281Z,4.70
2018-12-10T06:36:12.879Z,4.70
2018-12-10T06:38:40.497Z,4.70
2018-12-10T06:41:07.995Z,4.80
2018-12-10T06:43:35.427Z,4.80
2018-12-10T06:46:02.872Z,4.80
2018-12-10T06:48:30.371Z,4.90
2018-12-10T06:50:57.832Z,4.80
2018-12-10T06:53:25.556Z,4.90
2018-12-10T06:55:53.316Z,4.90
2018-12-10T06:58:20.904Z,4.90
2018-12-10T07:00:48.715Z,4.90
2018-12-10T07:03:16.156Z,4.90
2018-12-10T07:05:43.692Z,4.90
2018-12-10T07:08:11.210Z,4.90
2018-12-10T07:10:38.799Z,4.90
2018-12-10T07:13:06.277Z,5.00
2018-12-10T07:15:33.725Z,4.90
2018-12-10T07:18:01.487Z,4.90
2018-12-10T07:20:28.918Z,4.80
2018-12-10T07:22:56.697Z,4.80
2018-12-10T07:25:24.155Z,4.80
2018-12-10T07:27:51.681Z,6.70
2018-12-10T07:30:19.129Z,6.90
2018-12-10T07:32:46.696Z,7.00
2018-12-10T07:35:14.308Z,6.80
2018-12-10T07:37:42.023Z,6.90
2018-12-10T07:40:09.505Z,7.10
2018-12-10T07:42:37.139Z,6.90
2018-12-10T07:45:05.720Z,6.80
2018-12-10T07:47:33.275Z,6.80
2018-12-10T07:50:00.878Z,6.60
2018-12-10T07:52:28.341Z,6.00
2018-12-10T07:54:56.261Z,5.50
2018-12-10T07:57:24.375Z,5.40
2018-12-10T07:59:51.796Z,5.40
2018-12-10T08:02:19.261Z,5.20
2018-12-10T08:04:46.797Z,5.00
2018-12-10T08:07:14.231Z,4.90
2018-12-10T08:09:41.918Z,4.90
2018-12-10T08:12:09.512Z,4.90
2018-12-10T08:14:37.151Z,5.00
2018-12-10T08:17:04.801Z,5.00
2018-12-10T08:19:32.364Z,5.00
2018-12-10T08:21:59.832Z,5.00
2018-12-10T08:24:27.303Z,5.00
2018-12-10T08:26:54.769Z,5.00
2018-12-10T08:29:22.206Z,5.10
2018-12-10T08:31:49.730Z,5.10
2018-12-10T08:34:17.270Z,5.10
2018-12-10T08:36:44.918Z,5.10
2018-12-10T08:39:12.506Z,5.10
2018-12-10T08:41:40.996Z,5.20
2018-12-10T08:44:08.459Z,5.20
2018-12-10T08:46:35.914Z,5.10
2018-12-10T08:49:03.375Z,5.00
2018-12-10T08:51:30.848Z,5.00
2018-12-10T08:53:58.329Z,5.00
2018-12-10T08:56:25.798Z,5.00
2018-12-10T08:58:53.266Z,5.00
2018-12-10T09:01:20.797Z,5.10
2018-12-10T09:03:48.737Z,5.10
2018-12-10T09:06:16.264Z,5.00
2018-12-10T09:08:43.750Z,5.10
2018-12-10T09:11:11.257Z,5.10
2018-12-10T09:13:39.512Z,5.20
2018-12-10T09:16:07.061Z,5.20
2018-12-10T09:18:34.695Z,5.20
2018-12-10T09:21:02.293Z,5.20
2018-12-10T09:23:30.051Z,5.20
2018-12-10T09:25:57.824Z,5.20
2018-12-10T09:28:25.445Z,5.20
2018-12-10T09:30:53.545Z,5.40
2018-12-10T09:33:21.116Z,5.30
2018-12-10T09:35:48.623Z,4.90
2018-12-10T09:38:16.092Z,4.90
2018-12-10T09:40:43.579Z,4.90
2018-12-10T09:43:11.052Z,4.90
2018-12-10T09:45:38.538Z,4.90
2018-12-10T09:48:06.041Z,4.90
2018-12-10T09:50:33.565Z,4.90
2018-12-10T09:53:01.016Z,4.90
2018-12-10T09:55:28.463Z,4.90
2018-12-10T09:57:55.938Z,4.90
2018-12-10T10:00:23.426Z,5.00
2018-12-10T10:02:51.676Z,5.00
2018-12-10T10:05:19.268Z,5.00
2018-12-10T10:07:46.731Z,5.00
2018-12-10T10:10:14.504Z,5.00
2018-12-10T10:12:41.950Z,5.00
2018-12-10T10:15:09.486Z,5.00
2018-12-10T10:17:36.969Z,5.10
2018-12-10T10:20:04.623Z,5.00
2018-12-10T10:22:32.087Z,5.00
2018-12-10T10:24:59.851Z,5.10
2018-12-10T10:27:27.320Z,5.20
2018-12-10T10:29:55.067Z,5.30
2018-12-10T10:32:22.588Z,5.30
2018-12-10T10:34:50.184Z,5.30
2018-12-10T10:37:17.738Z,5.30
2018-12-10T10:39:45.507Z,5.20
2018-12-10T10:42:13.272Z,5.30
2018-12-10T10:44:41.040Z,5.20
2018-12-10T10:47:08.490Z,5.10
2018-12-10T10:49:35.968Z,5.00
2018-12-10T10:52:03.536Z,4.80
2018-12-10T10:54:31.234Z,4.60
2018-12-10T10:56:58.850Z,4.60
2018-12-10T10:59:26.379Z,4.50
2018-12-10T11:01:54.553Z,4.40
2018-12-10T11:04:22.031Z,4.50
2018-12-10T11:06:49.527Z,4.50
2018-12-10T11:09:18.247Z,4.60
2018-12-10T11:11:46.039Z,4.60
2018-12-10T11:14:13.510Z,4.70
2018-12-10T11:16:41.028Z,4.70
2018-12-10T11:19:08.660Z,4.70
2018-12-10T11:21:36.247Z,4.70
2018-12-10T11:24:03.891Z,4.80
2018-12-10T11:26:31.561Z,4.80
2018-12-10T11:28:59.028Z,5.00
2018-12-10T11:31:26.507Z,5.00
2018-12-10T11:33:54.184Z,5.10
2018-12-10T11:36:21.724Z,5.00
2018-12-10T11:38:49.182Z,4.90
2018-12-10T11:41:16.840Z,4.60
2018-12-10T11:43:44.339Z,4.50
2018-12-10T11:46:11.844Z,4.30
2018-12-10T11:48:39.275Z,4.30
2018-12-10T11:51:07.004Z,4.30
2018-12-10T11:53:34.463Z,4.20
2018-12-10T11:56:01.957Z,4.10
2018-12-10T11:58:29.568Z,4.20
2018-12-10T12:00:57.073Z,4.20
2018-12-10T12:03:24.549Z,4.30
2018-12-10T12:05:52.007Z,4.50
2018-12-10T12:08:19.744Z,4.70
2018-12-10T12:10:47.236Z,4.70
2018-12-10T12:13:14.698Z,4.80
2018-12-10T12:15:42.259Z,4.90
2018-12-10T12:18:10.619Z,4.80
2018-12-10T12:20:38.112Z,4.90
2018-12-10T12:23:05.651Z,4.90
2018-12-10T12:25:33.229Z,4.90
2018-12-10T12:28:00.683Z,4.80
2018-12-10T12:30:28.279Z,4.80
2018-12-10T12:32:55.759Z,4.80
2018-12-10T12:35:23.320Z,4.80
2018-12-10T12:37:50.810Z,5.00
2018-12-10T12:40:18.306Z,5.10
2018-12-10T12:42:45.729Z,4.90
2018-12-10T12:45:13.254Z,4.90
2018-12-10T12:47:40.720Z,4.70
2018-12-10T12:50:08.236Z,4.70
2018-12-10T12:52:35.767Z,4.80
2018-12-10T12:55:03.230Z,4.80
2018-12-10T12:57:30.849Z,4.70
2018-12-10T12:59:58.294Z,4.60
2018-12-10T13:02:25.955Z,4.40
2018-12-10T13:04:53.387Z,4.20
2018-12-10T13:07:20.844Z,4.10
2018-12-10T13:09:48.546Z,4.00
2018-12-10T13:12:16.048Z,4.00
2018-12-10T13:14:43.683Z,4.00
2018-12-10T13:17:11.327Z,4.00
2018-12-10T13:19:38.826Z,4.10
2018-12-10T13:22:06.334Z,4.10
2018-12-10T13:24:35.795Z,4.20
2018-12-10T13:27:03.547Z,4.20
2018-12-10T13:29:31.546Z,4.30
2018-12-10T13:31:59.485Z,4.40
2018-12-10T13:34:27.471Z,4.50
2018-12-10T13:36:55.349Z,4.60
2018-12-10T13:39:22.932Z,4.60
2018-12-10T13:41:50.414Z,4.60
2018-12-10T13:44:17.873Z,4.60
2018-12-10T13:46:45.412Z,4.60
2018-12-10T13:49:12.909Z,4.60
2018-12-10T13:51:41.667Z,4.70
2018-12-10T13:54:09.095Z,4.60
2018-12-10T13:56:36.832Z,4.60
2018-12-10T13:59:04.392Z,4.60
2018-12-10T14:01:32.048Z,4.60
2018-12-10T14:04:00.796Z,4.60
2018-12-10T14:06:28.352Z,4.60
2018-12-10T14:08:55.808Z,4.60
2018-12-10T14:11:23.349Z,4.60
2018-12-10T14:13:51.107Z,4.60
2018-12-10T14:16:18.606Z,4.60
2018-12-10T14:18:46.038Z,4.60
2018-12-10T14:21:13.770Z,4.60
2018-12-10T14:23:41.232Z,4.50
2018-12-10T14:26:08.895Z,4.50
2018-12-10T14:28:36.356Z,4.50
2018-12-10T14:31:04.360Z,4.50
2018-12-10T14:33:32.159Z,4.50
2018-12-10T14:36:00.364Z,4.60
2018-12-10T14:38:27.998Z,4.60
2018-12-10T14:40:55.588Z,4.60
2018-12-10T14:43:23.218Z,4.60
2018-12-10T14:45:50.824Z,4.60
2018-12-10T14:48:18.341Z,4.60
2018-12-10T14:50:45.752Z,4.70
2018-12-10T14:53:15.049Z,4.70
2018-12-10T14:55:42.482Z,4.70
2018-12-10T14:58:09.954Z,4.70
2018-12-10T15:00:37.436Z,4.80
2018-12-10T15:03:05.147Z,4.70
2018-12-10T15:05:32.778Z,4.80
2018-12-10T15:08:00.252Z,4.70
2018-12-10T15:10:27.704Z,4.80
2018-12-10T15:12:55.281Z,4.70
2018-12-10T15:15:22.748Z,4.60
2018-12-10T15:17:50.375Z,4.60
2018-12-10T15:20:17.955Z,4.30
2018-12-10T15:22:45.514Z,4.20
2018-12-10T15:25:12.961Z,4.10
2018-12-10T15:27:40.938Z,4.20
2018-12-10T15:30:08.791Z,4.20
2018-12-10T15:32:36.249Z,4.10
2018-12-10T15:35:04.615Z,4.20
2018-12-10T15:37:32.075Z,4.20
2018-12-10T15:39:59.531Z,4.20
2018-12-10T15:42:27.088Z,4.20
2018-12-10T15:44:54.674Z,4.20
2018-12-10T15:47:22.155Z,4.20
2018-12-10T15:49:49.892Z,4.20
2018-12-10T15:52:17.660Z,4.30
2018-12-10T15:54:45.395Z,4.30
2018-12-10T15:57:13.357Z,4.30
2018-12-10T15:59:40.962Z,4.30
2018-12-10T16:02:08.877Z,4.40
2018-12-10T16:04:36.338Z,4.50
2018-12-10T16:07:03.806Z,4.60
2018-12-10T16:09:31.255Z,4.70
2018-12-10T16:11:59.380Z,4.70
2018-12-10T16:14:26.941Z,4.80
2018-12-10T16:16:54.679Z,4.80
2018-12-10T16:19:22.324Z,4.80
2018-12-10T16:21:51.059Z,4.90
2018-12-10T16:24:18.516Z,4.90
2018-12-10T16:26:45.967Z,4.90
2018-12-10T16:29:13.399Z,4.90
2018-12-10T16:31:41.389Z,4.90
2018-12-10T16:34:08.947Z,5.00
2018-12-10T16:36:36.415Z,4.90
2018-12-10T16:39:07.089Z,4.90
2018-12-10T16:41:35.295Z,4.90
2018-12-10T16:44:02.988Z,4.90
2018-12-10T16:46:30.436Z,4.90
2018-12-10T16:48:57.959Z,4.90
2018-12-10T16:51:25.545Z,4.90
2018-12-10T16:53:52.988Z,4.90
2018-12-10T16:56:20.419Z,5.00
2018-12-10T16:58:47.879Z,4.90
2018-12-10T17:01:15.518Z,4.90
2018-12-10T17:03:43.125Z,4.90
2018-12-10T17:06:10.556Z,5.00
2018-12-10T17:08:38.677Z,5.00
2018-12-10T17:11:06.142Z,5.00
2018-12-10T17:13:33.583Z,5.00
2018-12-10T17:16:01.337Z,5.10
2018-12-10T17:18:28.819Z,5.10
2018-12-10T17:20:57.039Z,5.10
2018-12-10T17:23:24.453Z,5.20
2018-12-10T17:25:51.935Z,5.30
2018-12-10T17:28:19.485Z,5.30
2018-12-10T17:30:46.967Z,5.30
2018-12-10T17:33:14.400Z,5.30
2018-12-10T17:35:41.863Z,5.30
2018-12-10T17:38:09.358Z,5.30
2018-12-10T17:40:36.950Z,5.20
2018-12-10T17:43:04.439Z,5.30
2018-12-10T17:45:31.940Z,5.30
2018-12-10T17:47:59.403Z,5.30
2018-12-10T17:50:27.089Z,5.30
2018-12-10T17:52:54.739Z,5.20
2018-12-10T17:55:22.217Z,5.20
2018-12-10T17:57:50.068Z,5.30
2018-12-10T18:00:17.619Z,5.20
2018-12-10T18:02:45.080Z,5.30
2018-12-10T18:05:12.551Z,5.70
2018-12-10T18:07:40.063Z,6.10
2018-12-10T18:10:07.629Z,6.00
2018-12-10T18:12:35.171Z,6.10
2018-12-10T18:15:02.740Z,5.80
2018-12-10T18:17:30.285Z,5.60
2018-12-10T18:19:57.996Z,5.50
2018-12-10T18:22:25.783Z,5.40
2018-12-10T18:24:53.383Z,5.40
2018-12-10T18:27:20.835Z,5.40
2018-12-10T18:29:48.389Z,5.50
2018-12-10T18:32:15.846Z,5.60
2018-12-10T18:34:43.642Z,5.50
2018-12-10T18:37:12.025Z,5.60
2018-12-10T18:39:40.268Z,5.50
2018-12-10T18:42:07.703Z,5.50
2018-12-10T18:44:35.213Z,5.50
2018-12-10T18:47:02.758Z,5.50
2018-12-10T18:49:30.188Z,5.50
2018-12-10T18:51:57.648Z,5.50
2018-12-10T18:54:25.127Z,5.40
2018-12-10T18:56:52.597Z,5.40
2018-12-10T18:59:20.346Z,5.40
2018-12-10T19:01:47.932Z,5.40
2018-12-10T19:04:15.398Z,5.40
2018-12-10T19:06:43.040Z,4.90
2018-12-10T19:09:10.791Z,5.40
2018-12-10T19:11:38.300Z,5.40
2018-12-10T19:14:05.787Z,5.40
2018-12-10T19:16:33.751Z,5.40
2018-12-10T19:19:01.324Z,5.40
2018-12-10T19:21:28.810Z,5.40
2018-12-10T19:23:56.321Z,5.50
2018-12-10T19:26:23.889Z,5.50
2018-12-10T19:28:51.612Z,5.50
2018-12-10T19:31:19.065Z,5.50
2018-12-10T19:33:46.859Z,5.50
2018-12-10T19:36:14.313Z,5.50
2018-12-10T19:38:42.079Z,5.50
2018-12-10T19:41:09.557Z,5.50
2018-12-10T19:43:37.011Z,5.50
2018-12-10T19:46:04.446Z,5.50
2018-12-10T19:48:32.218Z,5.50
2018-12-10T19:50:59.687Z,5.50
2018-12-10T19:53:27.457Z,5.40
2018-12-10T19:55:55.204Z,5.50
2018-12-10T19:58:22.967Z,5.50
2018-12-10T20:00:50.420Z,5.40
2018-12-10T20:03:17.874Z,5.40
2018-12-10T20:05:50.996Z,5.40
2018-12-10T20:08:18.539Z,5.40
2018-12-10T20:10:45.968Z,5.40
2018-12-10T20:13:13.427Z,5.40
2018-12-10T20:15:41.168Z,5.30
2018-12-10T20:18:08.765Z,5.30
2018-12-10T20:20:36.232Z,5.30
2018-12-10T20:23:03.743Z,5.30
2018-12-10T20:25:31.307Z,5.40
2018-12-10T20:27:58.923Z,5.40
2018-12-10T20:30:26.434Z,5.40
2018-12-10T20:32:54.033Z,5.30
2018-12-10T20:35:21.566Z,5.30
2018-12-10T20:37:49.286Z,5.30
2018-12-10T20:40:16.801Z,5.30
2018-12-10T20:42:44.474Z,5.30
2018-12-10T20:45:12.007Z,5.30
2018-12-10T20:47:39.767Z,5.30
2018-12-10T20:50:07.356Z,5.30
2018-12-10T20:52:34.868Z,5.20
2018-12-10T20:55:02.455Z,5.30
2018-12-10T20:57:29.973Z,5.30
2018-12-10T20:59:57.436Z,5.20
2018-12-10T21:02:29.216Z,5.30
2018-12-10T21:04:54.723Z,5.30
2018-12-10T21:07:22.184Z,5.30
2018-12-10T21:09:49.856Z,5.30
2018-12-10T21:12:17.423Z,5.30
2018-12-10T21:14:44.883Z,5.30
2018-12-10T21:17:12.351Z,5.30
2018-12-10T21:19:41.037Z,5.30
2018-12-10T21:22:08.467Z,5.20
2018-12-10T21:24:35.953Z,5.20
2018-12-10T21:27:04.475Z,5.30
2018-12-10T21:29:32.028Z,5.30
2018-12-10T21:31:59.479Z,5.30
2018-12-10T21:34:26.955Z,5.30
2018-12-10T21:36:54.415Z,5.40
2018-12-10T21:39:21.891Z,6.00
2018-12-10T21:41:50.268Z,6.30
2018-12-10T21:44:17.767Z,6.20
2018-12-10T21:46:45.204Z,6.20
2018-12-10T21:49:12.719Z,6.20
2018-12-10T21:51:40.164Z,5.70
2018-12-10T21:54:07.780Z,5.50
2018-12-10T21:56:35.216Z,5.40
2018-12-10T21:59:02.701Z,5.40
2018-12-10T22:01:31.015Z,5.50
2018-12-10T22:03:58.600Z,5.50
2018-12-10T22:06:26.067Z,5.50
2018-12-10T22:08:53.529Z,5.40
2018-12-10T22:11:21.275Z,5.50
2018-12-10T22:13:48.911Z,5.50
2018-12-10T22:16:16.505Z,5.50
2018-12-10T22:18:44.264Z,5.50
2018-12-10T22:21:11.731Z,5.50
2018-12-10T22:23:39.181Z,5.50
2018-12-10T22:26:06.652Z,5.50
2018-12-10T22:28:34.281Z,5.50
2018-12-10T22:31:01.846Z,5.60
2018-12-10T22:33:29.320Z,5.50
2018-12-10T22:35:56.772Z,5.50
2018-12-10T22:38:24.535Z,5.50
2018-12-10T22:40:52.295Z,5.50
2018-12-10T22:43:20.064Z,5.50
2018-12-10T22:45:47.505Z,5.50
2018-12-10T22:48:15.140Z,5.50
2018-12-10T22:50:42.769Z,5.50
2018-12-10T22:53:10.388Z,5.60
2018-12-10T22:55:37.953Z,5.50
2018-12-10T22:58:05.408Z,5.60
2018-12-10T23:00:38.387Z,5.60
2018-12-10T23:03:05.851Z,5.60
2018-12-10T23:05:33.788Z,5.60
2018-12-10T23:08:01.226Z,5.60
2018-12-10T23:10:28.684Z,5.60
2018-12-10T23:12:56.231Z,5.60
2018-12-10T23:15:23.687Z,5.60
2018-12-10T23:17:51.148Z,5.60
2018-12-10T23:20:18.626Z,5.50
2018-12-10T23:22:46.082Z,5.60
2018-12-10T23:25:13.572Z,5.60
2018-12-10T23:27:41.042Z,5.60
2018-12-10T23:30:08.599Z,5.60
2018-12-10T23:32:36.068Z,5.60
2018-12-10T23:35:04.031Z,5.60
2018-12-10T23:37:31.467Z,5.60
2018-12-10T23:39:58.937Z,5.50
2018-12-10T23:42:26.701Z,5.60
2018-12-10T23:44:54.608Z,5.60
2018-12-10T23:47:22.084Z,5.60
2018-12-10T23:49:49.577Z,5.60
2018-12-10T23:52:17.048Z,5.60
2018-12-10T23:54:44.610Z,5.60
2018-12-10T23:57:12.075Z,5.70
2018-12-10T23:59:40.125Z,5.60
